Terminal Aerodrome Forecast
Issued by NWS Green Bay, WI

Home | Current Version | Previous Version | Text Only | Print | Product List | Glossary Off
Versions: 1 2 3 4 5 6 7 8 9 10 11 12 13 14 15 16 17 18 19 20 21 22 23 24 25 26 27 28 29 30 31

000
FTUS43 KGRB 191700
TAFGRB
TAF
KGRB 191735Z 1918/2018 14012G18KT P6SM FEW250
     FM200100 17010KT P6SM SCT100 BKN200 WS012/19040KT
     FM200500 18010KT P6SM BKN040 OVC100 WS012/21040KT
      TEMPO 2010/2014 -RA
     FM201400 20008KT 4SM -SHRA OVC030=

USA.gov is the U.S. government's official web portal to all federal, state and local government web resources and services.